Aérodrome :
LOGIN :

S'inscrire | Disclaimer

   EN    FR    IT 

 










Légende :    VFR   VFR Marginal   IFR   IFR Intensif   IFR Très Intensif
Visi : 
Plafond : 
>= 8 km
>= 3000ft
5 à 8 km
1000 à 3000 ft
1500m à 5 km
500 à 1000 ft
800 à 1500m
200 à 500 ft
< 800m
< 200 ft
Symboles :   Orages  Brouillard  Fortes neiges  Fortes précipitations  Vent > 20 kt
SIGMETs :   Divers  Orages  Givrage  Turbulence  Onde Orograph.  Cendres Volcan.







- Altitude de l'aérodrome : 17 ft
- Code IATA : MPL
- Voir les cartes d'approche


LFMT - Montpellier Méditerranée

DERNIER METAR :
  • 222200Z AUTO 11003KT 9999 BKN007 24/22 Q1018 TEMPO 1200 BR OVC003

METARs EXPIRÉS :
  • 222130Z AUTO 13003KT 090V160 9999 OVC007 24/22 Q1017 TEMPO 1200 BR OVC003
  • 222100Z AUTO VRB02KT 9999 OVC006 24/22 Q1018 TEMPO 1200 BR OVC003
  • 222030Z AUTO VRB03KT 9999 BKN007 24/22 Q1018 TEMPO 1200 BR OVC003
  • 222000Z AUTO 15003KT 130V190 9999 BKN007 24/22 Q1017 NOSIG
  • 221930Z AUTO 19003KT 150V220 9999 BKN007 24/22 Q1017 NOSIG

TAF TAF LFMT
Valide du 22 à 21h jusqu'au 23 à 21h UTC


222000Z 2221/2321 VRB04KT 9999 BKN006
TEMPO 2222/2307 1200 BR OVC003
BECMG 2309/2311 18010KT CAVOK
TEMPO 2313/2315 SCT030TCU
ATIS : +33 4 67 13 11 70
Pas de NOTAMs connus pour ce terrain.



MET'MAP, la Météo Aéronautique d'un coup d'oeil ! - Copyright ORBIFLY Décembre 2007 - Disclaimer

ORBIFLY MET'MAP TEAM :

Programmation & Développement : Alexandra Zaïnal
Conception & Développement : Baudouin d'Aumeries
Co-Programmation & Développement : Marc-Olivier Méhu
Soutien technique & logistique : Manuel Goepfert

Contact : metmap@orbifly.com




SOURCES & CREDITS :

   NOAA